Walhalla, ND

5:39 AM CST on January 26, 2015 (GMT -0600)
Walhalla | Change Station
CLOSE
Current Station
Airport
Location: Walhalla,
Elevation: 951 ft
Nearby Weather Stations

Elev 951 ft 48.94 °N, 97.90 °W | Updated 24 minutes ago

Clear
Clear
37 °F
Feels Like 28 °F
N
17
Wind Variable Wind from WNW
Gusts 28 mph

Today
High -- | Low -- °F
--% Chance of Precip.
Yesterday
High -- | Low -- °F
Precip. -- in
8:09 AM 5:19 PM
Waxing Crescent, 42% visible
Pressure 29.62 in
Visibility 10.0 miles
Clouds
Windchill 28 °F
Dew Point 36 °F
Humidity 93%
Rainfall 0.00 in
Snow Depth Not available.
UV Not available.
Pollen .10 out of 12
Air Quality Not available.
Flu Activity Not available.
METAR K96D 261115Z AUTO 30015G24KT 10SM 03/02 A2962 RMK AO2

More Conditions Fewer Conditions

Pressure 29.62 in
Visibility 10.0 miles
Clouds
Windchill 28 °F
Dew Point 36 °F
Humidity 93%
Rainfall 0.00 in
Snow Depth Not available.
UV Not available.
Pollen .10 out of 12
Air Quality Not available.
Flu Activity Not available.
METAR K96D 261115Z AUTO 30015G24KT 10SM 03/02 A2962 RMK AO2

More Conditions Fewer Conditions

10-Day Weather Forecast

Almanac

Astronomy

Jan. 26, 2015 Rise Set
Actual Time
Civil Twilight
Nautical Twilight
Astronomical Twilight
Moon
Length of Visible Light
Length of Day
Tomorrow will be .
, % of the Moon is Illuminated

Today's Extremes

State Highs State Lows

Community

WunderPhotos

Upload Photos

1,790,172 photos uploaded!

WunderBlogs® & News

Nearby

Air Quality

  Air Quality AQ Index Pollutant
Not available.

Snow Depth

Station Depth Elevation

Earthquake Activity

City Distance Mag. Time & Date
Minimum magnitude displayed is 2.5.

Coastal Water Temperatures

Place Temperature

Nearby Weather Stations